createdAt,value
2023-01-13T00:00:41.999Z,11.08
2023-01-13T00:04:00.904Z,11.09
2023-01-13T00:07:22.916Z,11.11
2023-01-13T00:10:51.528Z,11.14
2023-01-13T00:14:13.212Z,11.19
2023-01-13T00:16:45.468Z,11.19
2023-01-13T00:20:13.563Z,11.21
2023-01-13T00:23:42.653Z,11.21
2023-01-13T00:27:04.633Z,11.21
2023-01-13T00:30:26.927Z,11.21
2023-01-13T00:33:45.583Z,11.21
2023-01-13T00:37:04.952Z,11.20
2023-01-13T00:40:17.013Z,11.20
2023-01-13T00:43:16.635Z,11.20
2023-01-13T00:46:35.627Z,11.18
2023-01-13T00:49:50.364Z,11.17
2023-01-13T00:53:19.705Z,11.16
2023-01-13T00:56:50.989Z,11.17
2023-01-13T00:59:43.864Z,11.17
2023-01-13T01:03:12.919Z,11.17
2023-01-13T01:06:22.751Z,11.16
2023-01-13T01:09:43.570Z,11.15
2023-01-13T01:12:55.391Z,11.13
2023-01-13T01:16:10.761Z,11.12
2023-01-13T01:19:20.036Z,11.11
2023-01-13T01:22:49.109Z,11.10
2023-01-13T01:26:17.956Z,11.09
2023-01-13T01:29:45.355Z,11.11
2023-01-13T01:33:14.060Z,11.13
2023-01-13T01:36:42.850Z,11.16
2023-01-13T01:39:44.540Z,11.17
2023-01-13T01:42:36.734Z,11.19
2023-01-13T01:46:06.156Z,11.19
2023-01-13T01:49:14.891Z,11.17
2023-01-13T01:52:45.158Z,11.13
2023-01-13T01:56:00.203Z,11.09
2023-01-13T01:59:00.157Z,11.04
2023-01-13T02:02:19.253Z,10.98
2023-01-13T02:05:48.238Z,10.94
2023-01-13T02:08:59.985Z,10.91
2023-01-13T02:11:50.868Z,10.87
2023-01-13T02:15:19.773Z,10.84
2023-01-13T02:19:18.740Z,10.83
2023-01-13T02:22:21.429Z,10.82
2023-01-13T02:25:51.771Z,10.82
2023-01-13T02:29:17.840Z,10.82
2023-01-13T02:32:09.275Z,10.82
2023-01-13T02:35:27.601Z,10.82
2023-01-13T02:38:13.050Z,10.83
2023-01-13T02:41:41.545Z,10.83
2023-01-13T02:45:00.020Z,10.82
2023-01-13T02:47:59.449Z,10.80
2023-01-13T02:51:28.838Z,10.78
2023-01-13T02:54:03.336Z,10.75
2023-01-13T02:57:12.217Z,10.73
2023-01-13T03:00:41.521Z,10.73
2023-01-13T03:03:33.467Z,10.73
2023-01-13T03:07:02.764Z,10.74
2023-01-13T03:10:16.546Z,10.74
2023-01-13T03:13:37.270Z,10.74
2023-01-13T03:17:10.252Z,10.71
2023-01-13T03:20:13.191Z,10.66
2023-01-13T03:23:15.297Z,10.63
2023-01-13T03:25:58.765Z,10.61
2023-01-13T03:28:46.388Z,10.58
2023-01-13T03:31:29.483Z,10.56
2023-01-13T03:34:06.237Z,10.55
2023-01-13T03:36:57.000Z,10.58
2023-01-13T03:40:16.830Z,10.61
2023-01-13T03:43:34.626Z,10.67
2023-01-13T03:46:12.745Z,10.71
2023-01-13T03:48:54.635Z,10.74
2023-01-13T03:51:54.745Z,10.77
2023-01-13T03:55:26.361Z,10.81
2023-01-13T03:58:30.169Z,10.87
2023-01-13T04:01:23.480Z,10.91
2023-01-13T04:05:01.576Z,10.94
2023-01-13T04:08:54.824Z,11.00
2023-01-13T04:12:09.894Z,11.03
2023-01-13T04:18:34.891Z,11.08
2023-01-13T04:21:43.735Z,11.08
2023-01-13T04:24:15.708Z,11.08
2023-01-13T04:27:14.506Z,11.07
2023-01-13T04:30:36.280Z,11.06
2023-01-13T04:33:44.424Z,11.07
2023-01-13T04:36:29.046Z,11.08
2023-01-13T04:39:57.933Z,11.09
2023-01-13T04:43:26.992Z,11.10
2023-01-13T04:46:56.084Z,11.09
2023-01-13T04:50:23.815Z,11.08
2023-01-13T04:53:52.492Z,11.06
2023-01-13T04:56:59.907Z,11.07
2023-01-13T05:00:29.248Z,11.07
2023-01-13T05:03:58.725Z,11.08
2023-01-13T05:07:30.622Z,11.07
2023-01-13T05:10:49.771Z,11.07
2023-01-13T05:14:16.976Z,11.05
2023-01-13T05:17:45.699Z,11.04
2023-01-13T05:21:14.397Z,11.06
2023-01-13T05:24:42.253Z,11.10
2023-01-13T05:27:46.784Z,11.15
2023-01-13T05:30:50.406Z,11.19
2023-01-13T05:34:14.807Z,11.23
2023-01-13T05:37:16.554Z,11.26
2023-01-13T05:40:23.697Z,11.30
2023-01-13T05:43:34.235Z,11.33
2023-01-13T05:46:52.017Z,11.37
2023-01-13T05:49:20.835Z,11.40
2023-01-13T05:51:49.715Z,11.42
2023-01-13T05:55:00.286Z,11.44
2023-01-13T05:58:28.998Z,11.47
2023-01-13T06:01:36.348Z,11.50
2023-01-13T06:04:27.041Z,11.50
2023-01-13T06:06:59.080Z,11.48
2023-01-13T06:09:56.942Z,11.47
2023-01-13T06:12:45.058Z,11.46
2023-01-13T06:15:40.595Z,11.44
2023-01-13T06:18:40.073Z,11.42
2023-01-13T06:21:20.468Z,11.39
2023-01-13T06:23:53.444Z,11.38
2023-01-13T06:26:26.325Z,11.36
2023-01-13T06:28:57.438Z,11.33
2023-01-13T06:31:29.533Z,11.32
2023-01-13T06:34:09.308Z,11.31
2023-01-13T06:36:56.828Z,11.30
2023-01-13T06:39:48.743Z,11.29
2023-01-13T06:42:58.627Z,11.29
2023-01-13T06:46:13.794Z,11.30
2023-01-13T06:48:53.032Z,11.29
2023-01-13T06:51:31.935Z,11.28
2023-01-13T06:54:20.207Z,11.26
2023-01-13T06:56:54.810Z,11.25
2023-01-13T06:59:37.364Z,11.23
2023-01-13T07:02:29.434Z,11.21
2023-01-13T07:05:08.912Z,11.19
2023-01-13T07:08:00.492Z,11.19
2023-01-13T07:10:32.519Z,11.19
2023-01-13T07:13:23.523Z,11.20
2023-01-13T07:15:56.939Z,11.21
2023-01-13T07:18:39.892Z,11.22
2023-01-13T07:21:23.078Z,11.23
2023-01-13T07:23:54.621Z,11.22
2023-01-13T07:26:29.665Z,11.21
2023-01-13T07:28:59.498Z,11.20
2023-01-13T07:31:31.841Z,11.19
2023-01-13T07:34:00.748Z,11.19
2023-01-13T07:36:32.481Z,11.15
2023-01-13T07:39:01.347Z,11.12
2023-01-13T07:41:51.153Z,11.08
2023-01-13T07:44:25.913Z,11.05
2023-01-13T07:46:59.561Z,11.03
2023-01-13T07:49:31.589Z,10.99
2023-01-13T07:52:07.234Z,10.95
2023-01-13T07:54:41.915Z,10.92
2023-01-13T07:57:13.844Z,10.90
2023-01-13T07:59:46.044Z,10.86
2023-01-13T08:02:25.266Z,10.83
2023-01-13T08:05:33.833Z,10.79
2023-01-13T08:08:15.838Z,10.76
2023-01-13T08:10:47.809Z,10.73
2023-01-13T08:13:22.107Z,10.71
2023-01-13T08:16:15.781Z,10.69
2023-01-13T08:19:05.192Z,10.68
2023-01-13T08:21:37.420Z,10.66
2023-01-13T08:24:19.529Z,10.64
2023-01-13T08:26:54.902Z,10.63
2023-01-13T08:29:23.985Z,10.63
2023-01-13T08:31:52.650Z,10.63
2023-01-13T08:34:24.662Z,10.63
2023-01-13T08:37:23.448Z,10.64
2023-01-13T08:39:52.431Z,10.65
2023-01-13T08:42:51.522Z,10.67
2023-01-13T08:45:33.215Z,10.69
2023-01-13T08:48:02.014Z,10.71
2023-01-13T08:50:30.909Z,10.72
2023-01-13T08:53:05.828Z,10.74
2023-01-13T08:56:15.683Z,10.75
2023-01-13T08:59:34.913Z,10.79
2023-01-13T09:02:24.764Z,10.81
2023-01-13T09:05:08.284Z,10.84
2023-01-13T09:08:13.919Z,10.88
2023-01-13T09:11:13.048Z,10.90
2023-01-13T09:14:03.346Z,10.92
2023-01-13T09:16:36.042Z,10.94
2023-01-13T09:19:15.297Z,10.96
2023-01-13T09:22:16.002Z,10.97
2023-01-13T09:24:51.705Z,10.95
2023-01-13T09:28:01.813Z,10.92
2023-01-13T09:33:34.428Z,10.90
2023-01-13T09:36:06.783Z,10.88
2023-01-13T09:38:46.778Z,10.88
2023-01-13T09:41:46.017Z,10.87
2023-01-13T09:45:06.753Z,10.87
2023-01-13T09:48:18.894Z,10.89
2023-01-13T09:51:19.699Z,10.93
2023-01-13T09:54:41.778Z,10.95
2023-01-13T09:57:23.165Z,10.97
2023-01-13T10:00:10.763Z,11.00
2023-01-13T10:02:51.124Z,11.01
2023-01-13T10:05:59.557Z,11.03
2023-01-13T10:08:33.698Z,11.06
2023-01-13T10:11:25.075Z,11.07
2023-01-13T10:14:57.808Z,11.08
2023-01-13T10:17:44.491Z,11.10
2023-01-13T10:20:34.294Z,11.10
2023-01-13T10:23:45.765Z,11.10
2023-01-13T10:26:57.900Z,11.10
2023-01-13T10:29:29.490Z,11.10
2023-01-13T10:32:22.020Z,11.09
2023-01-13T10:35:03.523Z,11.08
2023-01-13T10:37:35.702Z,11.08
2023-01-13T10:40:10.388Z,11.06
2023-01-13T10:42:50.557Z,11.04
2023-01-13T10:45:26.147Z,11.04
2023-01-13T10:48:35.617Z,11.04
2023-01-13T10:51:38.222Z,11.03
2023-01-13T10:54:36.617Z,11.02
2023-01-13T10:57:30.944Z,11.02
2023-01-13T11:00:04.291Z,11.01
2023-01-13T11:02:36.743Z,11.01
2023-01-13T11:05:26.773Z,11.01
2023-01-13T11:07:59.060Z,11.02
2023-01-13T11:10:48.616Z,11.02
2023-01-13T11:14:02.013Z,11.01
2023-01-13T11:16:40.720Z,11.00
2023-01-13T11:19:32.233Z,11.00
2023-01-13T11:22:50.708Z,10.99
2023-01-13T11:25:53.423Z,10.98
2023-01-13T11:29:33.987Z,10.94
2023-01-13T11:32:26.024Z,10.91
2023-01-13T11:35:04.750Z,10.88
2023-01-13T11:38:06.906Z,10.85
2023-01-13T11:41:27.879Z,10.84
2023-01-13T11:44:14.867Z,10.84
2023-01-13T11:46:43.962Z,10.83
2023-01-13T11:49:34.113Z,10.82
2023-01-13T11:52:08.841Z,10.83
2023-01-13T11:55:22.637Z,10.83
2023-01-13T11:58:38.670Z,10.80
2023-01-13T12:01:28.582Z,10.79
2023-01-13T12:04:00.365Z,10.77
2023-01-13T12:06:56.914Z,10.74
2023-01-13T12:09:43.596Z,10.72
2023-01-13T12:12:50.962Z,10.70
2023-01-13T12:15:56.040Z,10.65
2023-01-13T12:18:56.945Z,10.62
2023-01-13T12:21:34.839Z,10.59
2023-01-13T12:24:29.902Z,10.56
2023-01-13T12:27:47.216Z,10.54
2023-01-13T12:30:25.242Z,10.53
2023-01-13T12:33:16.010Z,10.51
2023-01-13T12:36:10.784Z,10.50
2023-01-13T12:38:53.060Z,10.47
2023-01-13T12:41:25.676Z,10.47
2023-01-13T12:44:17.031Z,10.47
2023-01-13T12:47:03.013Z,10.49
2023-01-13T12:49:39.279Z,10.51
2023-01-13T12:52:26.517Z,10.51
2023-01-13T12:54:55.383Z,10.51
2023-01-13T12:57:34.169Z,10.49
2023-01-13T13:00:08.976Z,10.47
2023-01-13T13:02:52.458Z,10.45
2023-01-13T13:05:50.290Z,10.46
2023-01-13T13:08:34.786Z,10.46
2023-01-13T13:11:33.577Z,10.47
2023-01-13T13:14:07.362Z,10.48
2023-01-13T13:16:54.595Z,10.47
2023-01-13T13:19:23.159Z,10.48
2023-01-13T13:22:18.406Z,10.49
2023-01-13T13:25:03.057Z,10.52
2023-01-13T13:27:43.775Z,10.54
2023-01-13T13:30:35.280Z,10.58
2023-01-13T13:33:18.616Z,10.61
2023-01-13T13:36:26.324Z,10.64
2023-01-13T13:39:48.769Z,10.67
2023-01-13T13:42:40.385Z,10.70
2023-01-13T13:45:51.380Z,10.71
2023-01-13T13:48:27.061Z,10.76
2023-01-13T13:51:20.705Z,10.79
2023-01-13T13:53:49.567Z,10.85
2023-01-13T13:56:25.595Z,10.88
2023-01-13T13:58:56.549Z,10.89
2023-01-13T14:01:46.263Z,10.90
2023-01-13T14:04:26.990Z,10.92
2023-01-13T14:07:01.095Z,10.94
2023-01-13T14:09:46.296Z,10.95
2023-01-13T14:12:40.281Z,10.99
2023-01-13T14:15:26.035Z,11.01
2023-01-13T14:17:58.671Z,11.02
2023-01-13T14:20:29.071Z,11.02
2023-01-13T14:23:03.042Z,11.00
2023-01-13T14:25:50.951Z,10.99
2023-01-13T14:28:59.200Z,10.99
2023-01-13T14:31:48.027Z,10.99
2023-01-13T14:35:16.819Z,11.01
2023-01-13T14:38:37.885Z,11.03
2023-01-13T14:41:24.829Z,11.05
2023-01-13T14:44:15.874Z,11.07
2023-01-13T14:46:47.297Z,11.09
2023-01-13T14:50:03.790Z,11.11
2023-01-13T14:52:38.203Z,11.12
2023-01-13T14:56:10.266Z,11.13
2023-01-13T14:58:42.498Z,11.12
2023-01-13T15:01:40.364Z,11.12
2023-01-13T15:05:06.883Z,11.12
2023-01-13T15:07:50.104Z,11.13
2023-01-13T15:10:50.611Z,11.13
2023-01-13T15:14:11.641Z,11.13
2023-01-13T15:17:40.678Z,11.14
2023-01-13T15:20:39.589Z,11.15
2023-01-13T15:23:08.539Z,11.14
2023-01-13T15:26:16.861Z,11.15
2023-01-13T15:29:35.831Z,11.17
2023-01-13T15:32:14.687Z,11.18
2023-01-13T15:34:54.100Z,11.18
2023-01-13T15:37:43.472Z,11.18
2023-01-13T15:40:34.950Z,11.18
2023-01-13T15:43:45.469Z,11.18
2023-01-13T15:46:58.564Z,11.16
2023-01-13T15:50:04.194Z,11.16
2023-01-13T15:52:53.316Z,11.17
2023-01-13T15:55:25.283Z,11.18
2023-01-13T15:57:54.692Z,11.18
2023-01-13T16:00:26.951Z,11.18
2023-01-13T16:03:19.038Z,11.19
2023-01-13T16:05:51.848Z,11.20
2023-01-13T16:08:41.588Z,11.20
2023-01-13T16:12:10.574Z,11.21
2023-01-13T16:15:22.493Z,11.23
2023-01-13T16:18:24.736Z,11.25
2023-01-13T16:21:24.365Z,11.25
2023-01-13T16:24:52.981Z,11.21
2023-01-13T16:27:35.461Z,11.19
2023-01-13T16:30:24.036Z,11.19
2023-01-13T16:33:25.875Z,11.18
2023-01-13T16:36:10.471Z,11.18
2023-01-13T16:39:01.508Z,11.18
2023-01-13T16:41:30.344Z,11.19
2023-01-13T16:43:59.109Z,11.21
2023-01-13T16:46:30.316Z,11.23
2023-01-13T16:49:03.948Z,11.24
2023-01-13T16:51:41.964Z,11.26
2023-01-13T16:54:19.347Z,11.28
2023-01-13T16:56:58.240Z,11.28
2023-01-13T16:59:29.637Z,11.29
2023-01-13T17:02:27.616Z,11.31
2023-01-13T17:04:56.555Z,11.33
2023-01-13T17:07:37.795Z,11.33
2023-01-13T17:10:10.651Z,11.33
2023-01-13T17:13:15.661Z,11.32
2023-01-13T17:15:47.459Z,11.30
2023-01-13T17:18:55.887Z,11.29
2023-01-13T17:21:36.798Z,11.27
2023-01-13T17:24:09.051Z,11.28
2023-01-13T17:26:50.175Z,11.28
2023-01-13T17:29:33.746Z,11.27
2023-01-13T17:32:31.744Z,11.27
2023-01-13T17:35:20.373Z,11.29
2023-01-13T17:38:42.009Z,11.31
2023-01-13T17:42:02.334Z,11.33
2023-01-13T17:45:31.304Z,11.36
2023-01-13T17:48:43.264Z,11.39
2023-01-13T17:52:05.421Z,11.41
2023-01-13T17:54:57.733Z,11.44
2023-01-13T17:57:46.588Z,11.44
2023-01-13T18:00:37.326Z,11.44
2023-01-13T18:03:46.142Z,11.44
2023-01-13T18:06:51.449Z,11.42
2023-01-13T18:09:34.099Z,11.40
2023-01-13T18:12:06.128Z,11.40
2023-01-13T18:14:35.691Z,11.40
2023-01-13T18:17:27.701Z,11.41
2023-01-13T18:20:14.589Z,11.44
2023-01-13T18:23:24.438Z,11.45
2023-01-13T18:26:53.985Z,11.49
2023-01-13T18:29:23.028Z,11.54
2023-01-13T18:32:51.649Z,11.57
2023-01-13T18:36:00.417Z,11.59
2023-01-13T18:39:10.515Z,11.61
2023-01-13T18:42:21.597Z,11.64
2023-01-13T18:45:31.090Z,11.64
2023-01-13T18:48:59.789Z,11.65
2023-01-13T18:51:39.766Z,11.67
2023-01-13T18:54:53.258Z,11.68
2023-01-13T18:57:38.028Z,11.71
2023-01-13T19:01:07.296Z,11.74
2023-01-13T19:04:33.035Z,11.78
2023-01-13T19:07:57.248Z,11.80
2023-01-13T19:11:26.346Z,11.83
2023-01-13T19:14:55.090Z,11.86
2023-01-13T19:18:07.357Z,11.90
2023-01-13T19:20:35.891Z,11.96
2023-01-13T19:23:14.027Z,11.99
2023-01-13T19:25:46.018Z,12.02
2023-01-13T19:28:45.116Z,12.05
2023-01-13T19:31:41.455Z,12.07
2023-01-13T19:35:12.598Z,12.09
2023-01-13T19:38:40.216Z,12.11
2023-01-13T19:41:57.864Z,12.13
2023-01-13T19:44:47.806Z,12.16
2023-01-13T19:47:17.515Z,12.18
2023-01-13T19:50:26.195Z,12.19
2023-01-13T19:53:55.511Z,12.21
2023-01-13T19:56:54.767Z,12.24
2023-01-13T20:00:04.316Z,12.27
2023-01-13T20:03:33.291Z,12.29
2023-01-13T20:07:08.524Z,12.31
2023-01-13T20:10:23.181Z,12.33
2023-01-13T20:13:52.426Z,12.31
2023-01-13T20:17:20.455Z,12.31
2023-01-13T20:20:16.016Z,12.32
2023-01-13T20:23:08.525Z,12.34
2023-01-13T20:25:57.892Z,12.36
2023-01-13T20:28:57.148Z,12.38
2023-01-13T20:32:05.890Z,12.39
2023-01-13T20:34:54.583Z,12.41
2023-01-13T20:37:26.185Z,12.42
2023-01-13T20:40:54.987Z,12.43
2023-01-13T20:44:16.391Z,12.44
2023-01-13T20:47:35.362Z,12.47
2023-01-13T20:50:40.194Z,12.48
2023-01-13T20:53:43.876Z,12.47
2023-01-13T20:56:16.514Z,12.47
2023-01-13T20:59:08.125Z,12.46
2023-01-13T21:01:53.109Z,12.46
2023-01-13T21:04:24.705Z,12.45
2023-01-13T21:06:57.306Z,12.45
2023-01-13T21:09:27.680Z,12.45
2023-01-13T21:12:14.809Z,12.43
2023-01-13T21:15:02.192Z,12.41
2023-01-13T21:17:51.789Z,12.40
2023-01-13T21:20:20.714Z,12.38
2023-01-13T21:22:50.564Z,12.36
2023-01-13T21:25:20.733Z,12.34
2023-01-13T21:27:49.989Z,12.33
2023-01-13T21:30:21.832Z,12.30
2023-01-13T21:32:50.654Z,12.27
2023-01-13T21:35:19.361Z,12.22
2023-01-13T21:37:52.953Z,12.20
2023-01-13T21:40:21.831Z,12.19
2023-01-13T21:43:08.767Z,12.17
2023-01-13T21:46:00.739Z,12.16
2023-01-13T21:48:29.673Z,12.13
2023-01-13T21:51:02.688Z,12.11
2023-01-13T21:53:31.955Z,12.08
2023-01-13T21:56:00.416Z,12.06
2023-01-13T21:58:29.238Z,12.05
2023-01-13T22:01:03.537Z,12.05
2023-01-13T22:03:52.658Z,12.05
2023-01-13T22:06:21.549Z,12.06
2023-01-13T22:08:50.422Z,12.08
2023-01-13T22:11:19.257Z,12.09
2023-01-13T22:14:09.399Z,12.09
2023-01-13T22:17:37.102Z,12.09
2023-01-13T22:20:59.723Z,12.09
2023-01-13T22:24:28.717Z,12.07
2023-01-13T22:28:00.903Z,12.04
2023-01-13T22:31:29.554Z,12.01
2023-01-13T22:34:48.558Z,11.99
2023-01-13T22:38:17.345Z,11.97
2023-01-13T22:41:46.457Z,11.98
2023-01-13T22:45:15.617Z,11.99
2023-01-13T22:48:33.931Z,11.99
2023-01-13T22:52:08.589Z,12.00
2023-01-13T22:55:37.878Z,11.99
2023-01-13T22:59:06.480Z,11.98
2023-01-13T23:02:35.406Z,11.98
2023-01-13T23:06:04.025Z,11.98
2023-01-13T23:09:32.731Z,12.00
2023-01-13T23:13:01.448Z,12.01
2023-01-13T23:16:30.502Z,12.03
2023-01-13T23:19:59.325Z,12.06
2023-01-13T23:23:26.708Z,12.09
2023-01-13T23:26:35.582Z,12.11
2023-01-13T23:30:04.648Z,12.11
2023-01-13T23:32:56.360Z,12.09
2023-01-13T23:35:25.310Z,12.08
2023-01-13T23:37:54.196Z,12.08
2023-01-13T23:40:23.116Z,12.05
2023-01-13T23:42:52.216Z,12.04
2023-01-13T23:45:24.618Z,12.04
2023-01-13T23:47:53.610Z,12.03
2023-01-13T23:50:22.419Z,12.02
2023-01-13T23:52:50.857Z,12.02
2023-01-13T23:55:19.788Z,12.02
2023-01-13T23:57:49.243Z,12.03
